Time;durP1;ratioP1;P1;durP2;ratioP2;P2;SDS_P1;SDS_P2;PMS_P1;PMS_P2;Temp;Humidity;BMP_temperature;BMP_pressure;BME280_temperature;BME280_humidity;BME280_pressure;Samples;Min_cycle;Max_cycle;Signal;HPM_P1;HPM_P2
2024/02/24 00:00:51;;;;;;;17.42;14.45;;;3.80;99.90;;;;;;4967707;28;20125;-72
2024/02/24 00:03:18;;;;;;;14.63;13.18;;;3.80;99.90;;;;;;4963201;28;20046;-71
2024/02/24 00:05:48;;;;;;;12.95;11.88;;;3.90;99.90;;;;;;4965757;28;20123;-71
2024/02/24 00:08:15;;;;;;;14.10;12.77;;;3.90;99.90;;;;;;4964073;28;20027;-71
2024/02/24 00:10:42;;;;;;;13.27;12.32;;;3.90;99.90;;;;;;4969060;28;20140;-72
2024/02/24 00:13:09;;;;;;;18.15;14.05;;;4.00;99.90;;;;;;4973906;28;20530;-71
2024/02/24 00:15:36;;;;;;;14.40;13.00;;;4.00;99.90;;;;;;4964290;28;20144;-72
2024/02/24 00:18:04;;;;;;;14.20;13.00;;;4.00;99.90;;;;;;4964728;28;20054;-71
2024/02/24 00:20:31;;;;;;;16.70;13.13;;;4.00;99.90;;;;;;4967527;28;20100;-71
2024/02/24 00:22:58;;;;;;;15.10;13.18;;;4.00;99.90;;;;;;4965194;28;20137;-71
2024/02/24 00:25:25;;;;;;;17.20;15.35;;;4.00;99.90;;;;;;4964975;28;20066;-72
2024/02/24 00:27:51;;;;;;;17.42;13.93;;;4.00;99.90;;;;;;4974856;28;20058;-72
2024/02/24 00:30:18;;;;;;;25.80;15.88;;;4.00;99.90;;;;;;4976943;28;20046;-72
2024/02/24 00:32:45;;;;;;;17.38;14.48;;;4.10;99.90;;;;;;4964819;28;20109;-72
2024/02/24 00:35:12;;;;;;;16.25;14.55;;;4.10;99.90;;;;;;4962524;28;21404;-73
2024/02/24 00:37:39;;;;;;;17.30;14.07;;;4.20;99.90;;;;;;4968464;28;20053;-72
2024/02/24 00:40:07;;;;;;;15.00;13.60;;;4.20;99.90;;;;;;4962826;28;20429;-71
2024/02/24 00:42:34;;;;;;;17.63;13.60;;;4.30;99.90;;;;;;4972560;28;20055;-72
2024/02/24 00:45:02;;;;;;;15.77;13.50;;;4.30;99.90;;;;;;4963386;28;20046;-72
2024/02/24 00:47:29;;;;;;;14.00;12.57;;;4.30;99.90;;;;;;4957020;28;20279;-72
2024/02/24 00:49:55;;;;;;;13.90;12.55;;;4.30;99.90;;;;;;4965912;28;20049;-72
2024/02/24 00:52:22;;;;;;;13.68;12.52;;;4.30;99.90;;;;;;4962113;28;21806;-72
2024/02/24 00:54:49;;;;;;;13.23;12.20;;;4.30;99.90;;;;;;4967215;28;20129;-72
2024/02/24 00:57:16;;;;;;;15.30;12.05;;;4.30;99.90;;;;;;4960732;28;20050;-72
2024/02/24 00:59:43;;;;;;;14.32;12.98;;;4.20;99.90;;;;;;4977108;28;20243;-72
2024/02/24 01:02:09;;;;;;;15.02;12.60;;;4.20;99.90;;;;;;4961190;28;20069;-72
2024/02/24 01:04:36;;;;;;;14.60;12.40;;;4.20;99.90;;;;;;4963943;28;20097;-72
2024/02/24 01:07:03;;;;;;;13.40;12.18;;;4.20;99.90;;;;;;4977284;28;20034;-71
2024/02/24 01:09:30;;;;;;;15.90;12.50;;;4.10;99.90;;;;;;4979653;28;20522;-72
2024/02/24 01:11:57;;;;;;;14.02;11.98;;;4.10;99.90;;;;;;4965200;28;20038;-72
2024/02/24 01:14:24;;;;;;;14.57;12.35;;;4.00;99.90;;;;;;4963485;28;20623;-72
2024/02/24 01:16:51;;;;;;;13.35;12.25;;;4.00;99.90;;;;;;4966375;28;20189;-72
2024/02/24 01:19:18;;;;;;;14.40;12.75;;;4.00;99.90;;;;;;4947610;28;20093;-73
2024/02/24 01:21:45;;;;;;;14.52;13.07;;;4.00;99.90;;;;;;4952384;28;20049;-72
2024/02/24 01:24:14;;;;;;;14.15;12.80;;;3.90;99.90;;;;;;4966110;28;20038;-71
2024/02/24 01:26:41;;;;;;;17.60;13.50;;;3.90;99.90;;;;;;4967497;28;20050;-70
2024/02/24 01:29:07;;;;;;;14.10;12.88;;;3.90;99.90;;;;;;4973846;28;20034;-71
2024/02/24 01:31:34;;;;;;;13.68;12.25;;;3.90;99.90;;;;;;4965023;28;20148;-75
2024/02/24 01:34:01;;;;;;;16.92;12.77;;;3.90;99.90;;;;;;4964842;28;20769;-74
2024/02/24 01:36:28;;;;;;;17.42;12.80;;;3.90;99.90;;;;;;4962306;28;20064;-74
2024/02/24 01:38:55;;;;;;;13.80;12.50;;;4.00;99.90;;;;;;4964315;28;20050;-73
2024/02/24 01:41:22;;;;;;;13.30;12.23;;;4.00;99.90;;;;;;4952046;28;20039;-74
2024/02/24 01:43:49;;;;;;;13.98;12.63;;;4.10;99.90;;;;;;4967697;28;20513;-72
2024/02/24 01:46:16;;;;;;;15.80;13.02;;;4.10;99.90;;;;;;4963560;28;20046;-71
2024/02/24 01:48:43;;;;;;;13.57;12.15;;;4.10;99.90;;;;;;4966047;28;20054;-71
2024/02/24 01:51:10;;;;;;;14.05;12.65;;;4.10;99.90;;;;;;4954984;28;20467;-72
2024/02/24 01:53:37;;;;;;;13.82;12.65;;;4.10;99.90;;;;;;4970196;28;20619;-71
2024/02/24 01:56:07;;;;;;;16.77;12.98;;;4.00;99.90;;;;;;4949455;28;20125;-73
2024/02/24 01:58:38;;;;;;;13.52;12.32;;;4.00;99.90;;;;;;4969803;28;20140;-71
2024/02/24 02:01:08;;;;;;;16.55;13.90;;;4.00;99.90;;;;;;4974805;28;20039;-74
2024/02/24 02:03:36;;;;;;;18.27;13.00;;;4.00;99.90;;;;;;4986096;28;20058;-74
2024/02/24 02:06:03;;;;;;;19.05;12.95;;;4.10;99.90;;;;;;4961640;28;20046;-71
2024/02/24 02:08:30;;;;;;;17.48;12.85;;;4.00;99.90;;;;;;4952771;28;20063;-71
2024/02/24 02:10:57;;;;;;;14.00;12.82;;;3.90;99.90;;;;;;4954927;28;20417;-73
2024/02/24 02:13:24;;;;;;;13.50;12.18;;;3.90;99.90;;;;;;4955211;28;20051;-73
2024/02/24 02:15:57;;;;;;;12.95;11.85;;;3.80;99.90;;;;;;4970587;28;20039;-73
2024/02/24 02:18:24;;;;;;;16.42;11.95;;;3.80;99.90;;;;;;4953576;28;20059;-73
2024/02/24 02:20:52;;;;;;;20.00;11.63;;;3.80;99.90;;;;;;4949885;28;20051;-72
2024/02/24 02:23:19;;;;;;;13.93;12.52;;;3.80;99.90;;;;;;4944014;28;20055;-73
2024/02/24 02:25:46;;;;;;;12.85;11.52;;;3.80;99.90;;;;;;4945805;28;20134;-73
2024/02/24 02:28:13;;;;;;;12.93;11.65;;;3.80;99.90;;;;;;4944500;28;20664;-73
2024/02/24 02:30:40;;;;;;;15.48;13.00;;;3.70;99.90;;;;;;4950946;28;20672;-73
2024/02/24 02:33:08;;;;;;;14.63;11.48;;;3.70;99.90;;;;;;4947807;28;20053;-73
2024/02/24 02:35:36;;;;;;;15.32;11.43;;;3.70;99.90;;;;;;4966167;28;20058;-72
2024/02/24 02:38:07;;;;;;;14.77;11.93;;;3.70;99.90;;;;;;4966059;28;20474;-73
2024/02/24 02:40:34;;;;;;;16.63;11.88;;;3.70;99.90;;;;;;4969504;28;20073;-72
2024/02/24 02:43:01;;;;;;;14.00;12.52;;;3.70;99.90;;;;;;4968219;28;20055;-73
2024/02/24 02:45:28;;;;;;;13.50;11.98;;;3.70;99.90;;;;;;4964487;28;21266;-73
2024/02/24 02:47:55;;;;;;;16.60;11.30;;;3.70;99.90;;;;;;4977331;28;20054;-73
2024/02/24 02:50:22;;;;;;;14.85;11.63;;;3.60;99.90;;;;;;4960541;28;20059;-73
2024/02/24 02:52:49;;;;;;;15.52;11.15;;;3.60;99.90;;;;;;4948663;28;20133;-73
2024/02/24 02:55:17;;;;;;;17.23;11.73;;;3.60;99.90;;;;;;4963901;28;20452;-71
2024/02/24 02:57:44;;;;;;;15.43;12.60;;;3.60;99.90;;;;;;4964213;28;20042;-71
2024/02/24 03:00:11;;;;;;;12.95;11.63;;;3.60;99.90;;;;;;4943547;28;20055;-71
2024/02/24 03:02:38;;;;;;;14.15;11.98;;;3.60;99.90;;;;;;4962151;28;20077;-71
2024/02/24 03:05:06;;;;;;;14.50;12.82;;;3.70;99.90;;;;;;4967789;28;20046;-71
2024/02/24 03:07:33;;;;;;;13.52;12.38;;;3.60;99.90;;;;;;4965266;28;20598;-71
2024/02/24 03:09:59;;;;;;;13.20;11.80;;;3.60;99.90;;;;;;4961584;28;20042;-72
2024/02/24 03:12:26;;;;;;;13.35;11.95;;;3.60;99.90;;;;;;4965970;28;20058;-72
2024/02/24 03:14:53;;;;;;;13.35;11.93;;;3.60;99.90;;;;;;4966323;28;20657;-72
2024/02/24 03:17:20;;;;;;;14.63;13.30;;;3.60;99.90;;;;;;4967706;28;20125;-71
2024/02/24 03:19:47;;;;;;;20.10;13.15;;;3.50;99.90;;;;;;4968729;28;20045;-72
2024/02/24 03:22:14;;;;;;;22.08;14.63;;;3.60;99.90;;;;;;4965503;28;20137;-74
2024/02/24 03:24:42;;;;;;;13.73;11.60;;;3.60;99.90;;;;;;4966726;28;20473;-74
2024/02/24 03:27:12;;;;;;;13.65;12.27;;;3.50;99.90;;;;;;4964951;28;20486;-70
2024/02/24 03:29:40;;;;;;;11.88;10.77;;;3.50;99.90;;;;;;4968211;28;20541;-73
2024/02/24 03:32:07;;;;;;;17.98;11.45;;;3.50;99.90;;;;;;4964480;28;20605;-74
2024/02/24 03:34:34;;;;;;;11.60;10.52;;;3.50;99.90;;;;;;4944234;28;20062;-71
2024/02/24 03:37:01;;;;;;;11.68;10.68;;;3.50;99.90;;;;;;4964560;28;20560;-74
2024/02/24 03:39:28;;;;;;;13.85;11.13;;;3.40;99.90;;;;;;4965464;28;20046;-74
2024/02/24 03:41:55;;;;;;;12.90;11.52;;;3.50;99.90;;;;;;4964366;28;20082;-73
2024/02/24 03:44:21;;;;;;;21.77;13.65;;;3.50;99.90;;;;;;4961522;28;20517;-74
2024/02/24 03:46:48;;;;;;;13.10;11.73;;;3.40;99.90;;;;;;4970170;28;20042;-73
2024/02/24 03:49:15;;;;;;;15.73;10.75;;;3.40;99.90;;;;;;4963012;28;20047;-71
2024/02/24 03:51:42;;;;;;;12.43;11.15;;;3.40;99.90;;;;;;4963369;28;20038;-74
2024/02/24 03:54:10;;;;;;;11.82;10.82;;;3.40;99.90;;;;;;4963624;28;20047;-73
2024/02/24 03:56:37;;;;;;;13.95;11.10;;;3.40;99.90;;;;;;4979531;28;20044;-71
2024/02/24 03:59:04;;;;;;;12.63;11.38;;;3.40;99.90;;;;;;4948555;28;20129;-74
2024/02/24 04:01:31;;;;;;;15.60;11.57;;;3.40;99.90;;;;;;4964602;28;20586;-74
2024/02/24 04:03:58;;;;;;;13.27;11.85;;;3.50;99.90;;;;;;4956803;28;20113;-71
2024/02/24 04:06:25;;;;;;;13.35;11.77;;;3.50;99.90;;;;;;4960956;28;20042;-71
2024/02/24 04:08:52;;;;;;;12.50;11.40;;;3.50;99.90;;;;;;4970702;28;20081;-71
2024/02/24 04:11:19;;;;;;;14.20;11.05;;;3.50;99.90;;;;;;4960549;28;20054;-73
2024/02/24 04:13:45;;;;;;;13.13;12.02;;;3.50;99.90;;;;;;4962518;28;20061;-73
2024/02/24 04:16:12;;;;;;;13.52;12.15;;;3.40;99.90;;;;;;4963482;28;20050;-72
2024/02/24 04:18:39;;;;;;;14.15;12.70;;;3.50;99.90;;;;;;4947573;28;20054;-72
2024/02/24 04:21:06;;;;;;;14.52;12.52;;;3.40;99.90;;;;;;4966460;28;20404;-71
2024/02/24 04:23:33;;;;;;;15.65;11.55;;;3.40;99.90;;;;;;4961832;28;20054;-74
2024/02/24 04:26:00;;;;;;;14.70;11.40;;;3.30;99.90;;;;;;4958816;28;20039;-73
2024/02/24 04:28:28;;;;;;;14.07;11.77;;;3.30;99.90;;;;;;4966065;28;20046;-74
2024/02/24 04:30:54;;;;;;;13.30;11.98;;;3.30;99.90;;;;;;4963730;28;20043;-73
2024/02/24 04:33:21;;;;;;;13.35;11.48;;;3.40;99.90;;;;;;4956930;28;20046;-74
2024/02/24 04:35:48;;;;;;;15.02;11.70;;;3.30;99.90;;;;;;4962462;28;20050;-73
2024/02/24 04:38:15;;;;;;;15.32;11.50;;;3.30;99.90;;;;;;4962845;28;20710;-73
2024/02/24 04:40:42;;;;;;;12.43;11.20;;;3.30;99.90;;;;;;4951996;28;20916;-74
2024/02/24 04:43:09;;;;;;;18.58;11.68;;;3.30;99.90;;;;;;4964885;28;20054;-73
2024/02/24 04:45:36;;;;;;;15.98;11.40;;;3.30;99.90;;;;;;4956898;28;20086;-73
2024/02/24 04:48:03;;;;;;;12.80;11.07;;;3.30;99.90;;;;;;4956775;28;20474;-70
2024/02/24 04:50:30;;;;;;;13.45;11.18;;;3.30;99.90;;;;;;4959152;28;20057;-71
2024/02/24 04:52:57;;;;;;;13.77;10.75;;;3.30;99.90;;;;;;4962432;28;20053;-72
2024/02/24 04:55:24;;;;;;;15.27;11.55;;;3.30;99.90;;;;;;4976530;28;20050;-74
2024/02/24 04:57:51;;;;;;;12.07;10.27;;;3.30;99.90;;;;;;4964806;28;20078;-71
2024/02/24 05:00:18;;;;;;;13.68;11.00;;;3.30;99.90;;;;;;4964361;28;20081;-71
2024/02/24 05:02:45;;;;;;;11.68;10.57;;;3.30;99.90;;;;;;4966351;28;20046;-71
2024/02/24 05:05:12;;;;;;;13.80;10.75;;;3.20;99.90;;;;;;4974685;28;20047;-72
2024/02/24 05:07:39;;;;;;;15.18;11.27;;;3.20;99.90;;;;;;4962699;28;20141;-71
2024/02/24 05:10:07;;;;;;;12.63;11.57;;;3.10;99.90;;;;;;4960968;28;20050;-72
2024/02/24 05:12:35;;;;;;;12.73;11.55;;;3.10;99.90;;;;;;4962585;28;20082;-71
2024/02/24 05:15:02;;;;;;;13.27;11.30;;;3.00;99.90;;;;;;4973355;28;20048;-72
2024/02/24 05:17:29;;;;;;;13.88;11.68;;;3.00;99.90;;;;;;4959784;28;20104;-72
2024/02/24 05:19:56;;;;;;;17.77;11.52;;;3.00;99.90;;;;;;4955976;28;20061;-72
2024/02/24 05:22:23;;;;;;;12.48;11.20;;;3.10;99.90;;;;;;4960465;28;20599;-72
2024/02/24 05:24:50;;;;;;;13.43;11.20;;;3.10;99.90;;;;;;4961668;28;20057;-72
2024/02/24 05:27:19;;;;;;;16.52;11.57;;;3.10;99.90;;;;;;4962373;28;20130;-72
2024/02/24 05:29:46;;;;;;;12.65;11.27;;;3.20;99.90;;;;;;4983078;28;20185;-72
2024/02/24 05:32:16;;;;;;;16.25;11.88;;;3.20;99.90;;;;;;4960667;28;20863;-72
2024/02/24 05:34:43;;;;;;;15.48;12.02;;;3.20;99.90;;;;;;4967438;28;20042;-71
2024/02/24 05:37:10;;;;;;;13.07;11.13;;;3.20;99.90;;;;;;4961714;28;20045;-72
2024/02/24 05:39:38;;;;;;;14.98;11.77;;;3.20;99.90;;;;;;4956169;28;20051;-73
2024/02/24 05:42:06;;;;;;;13.38;11.98;;;3.20;99.90;;;;;;4976402;28;20050;-72
2024/02/24 05:44:33;;;;;;;16.83;12.55;;;3.20;99.90;;;;;;4959863;28;20059;-72
2024/02/24 05:47:00;;;;;;;15.07;11.10;;;3.20;99.90;;;;;;4960536;28;20046;-73
2024/02/24 05:49:26;;;;;;;16.80;12.02;;;3.20;99.90;;;;;;4947786;28;20080;-73
2024/02/24 05:51:53;;;;;;;15.23;13.68;;;3.20;99.90;;;;;;4965639;28;20530;-72
2024/02/24 05:54:21;;;;;;;16.27;12.13;;;3.20;99.90;;;;;;4952943;28;20153;-71
2024/02/24 05:56:48;;;;;;;15.48;11.85;;;3.20;99.90;;;;;;4961974;28;20050;-72
2024/02/24 05:59:15;;;;;;;13.23;12.00;;;3.20;99.90;;;;;;4960279;28;20047;-73
2024/02/24 06:01:42;;;;;;;14.30;12.70;;;3.20;99.90;;;;;;4961787;28;20062;-73
2024/02/24 06:04:09;;;;;;;16.73;12.20;;;3.20;99.90;;;;;;4962553;28;20050;-71
2024/02/24 06:06:36;;;;;;;16.48;12.00;;;3.20;99.90;;;;;;4958904;28;20091;-72
2024/02/24 06:09:03;;;;;;;14.23;11.57;;;3.20;99.90;;;;;;4971428;28;20165;-73
2024/02/24 06:11:29;;;;;;;18.85;12.43;;;3.20;99.90;;;;;;4970067;28;20053;-73
2024/02/24 06:13:56;;;;;;;17.40;12.27;;;3.20;99.90;;;;;;4948803;28;20070;-73
2024/02/24 06:16:23;;;;;;;13.32;12.13;;;3.30;99.90;;;;;;4959384;28;20049;-72
2024/02/24 06:18:50;;;;;;;14.70;13.18;;;3.30;99.90;;;;;;4974275;28;20061;-73
2024/02/24 06:21:17;;;;;;;18.65;13.65;;;3.30;99.90;;;;;;4971198;28;20520;-72
2024/02/24 06:23:43;;;;;;;15.88;13.70;;;3.40;99.90;;;;;;4962593;28;20054;-72
2024/02/24 06:26:10;;;;;;;15.43;13.82;;;3.40;99.90;;;;;;4964409;28;20046;-71
2024/02/24 06:28:38;;;;;;;15.55;13.60;;;3.40;99.90;;;;;;4974874;28;20062;-72
2024/02/24 06:31:05;;;;;;;18.00;14.38;;;3.40;99.90;;;;;;4951196;28;20074;-71
2024/02/24 06:33:32;;;;;;;17.05;15.40;;;3.50;99.90;;;;;;4957674;28;20066;-71
2024/02/24 06:35:59;;;;;;;17.80;16.10;;;3.50;99.90;;;;;;4948748;28;20133;-72
2024/02/24 06:38:27;;;;;;;18.00;16.38;;;3.60;99.90;;;;;;4947997;28;20061;-72
2024/02/24 06:40:54;;;;;;;20.70;16.08;;;3.60;99.90;;;;;;4946799;28;20169;-72
2024/02/24 06:43:21;;;;;;;17.60;16.00;;;3.70;99.90;;;;;;4949851;28;20042;-71
2024/02/24 06:45:47;;;;;;;17.50;15.90;;;3.70;99.90;;;;;;4964785;28;20054;-72
2024/02/24 06:48:15;;;;;;;17.23;15.75;;;3.70;99.90;;;;;;4949664;28;21110;-71
2024/02/24 06:50:42;;;;;;;17.35;15.68;;;3.70;99.90;;;;;;4952248;28;20051;-71
2024/02/24 06:53:09;;;;;;;16.73;15.05;;;3.80;99.90;;;;;;4968415;28;20046;-71
2024/02/24 06:55:36;;;;;;;16.50;15.23;;;3.80;99.90;;;;;;4946788;28;20070;-71
2024/02/24 06:58:03;;;;;;;16.15;14.73;;;3.90;99.90;;;;;;4964533;28;20054;-72
2024/02/24 07:00:29;;;;;;;16.50;14.85;;;4.00;99.90;;;;;;4957433;28;21567;-72
2024/02/24 07:02:56;;;;;;;17.23;15.57;;;4.00;99.90;;;;;;4969040;28;20366;-73
2024/02/24 07:05:25;;;;;;;17.05;15.85;;;4.10;99.90;;;;;;4965131;28;20109;-72
2024/02/24 07:07:52;;;;;;;19.42;15.88;;;4.20;99.90;;;;;;4965520;28;20101;-73
2024/02/24 07:10:19;;;;;;;17.50;15.63;;;4.20;99.90;;;;;;4965180;28;20050;-72
2024/02/24 07:12:46;;;;;;;16.83;15.32;;;4.30;99.90;;;;;;4963192;28;20073;-73
2024/02/24 07:15:13;;;;;;;17.65;16.23;;;4.30;99.90;;;;;;4965346;28;20050;-73
2024/02/24 07:17:41;;;;;;;18.10;16.20;;;4.40;99.90;;;;;;4959841;28;20049;-72
2024/02/24 07:20:08;;;;;;;18.60;16.92;;;4.40;99.90;;;;;;4967493;28;20049;-72
2024/02/24 07:22:35;;;;;;;20.63;17.42;;;4.50;99.90;;;;;;4958742;28;20051;-73
2024/02/24 07:25:02;;;;;;;19.35;16.95;;;4.50;99.90;;;;;;4970263;28;20041;-73
2024/02/24 07:27:29;;;;;;;18.08;16.55;;;4.50;99.90;;;;;;4963476;28;20046;-72
2024/02/24 07:29:56;;;;;;;19.35;17.33;;;4.50;99.90;;;;;;4952429;28;20047;-73
2024/02/24 07:32:22;;;;;;;18.40;16.77;;;4.50;99.90;;;;;;4966600;28;20491;-73
2024/02/24 07:34:50;;;;;;;17.75;16.42;;;4.60;99.90;;;;;;4967694;28;20618;-72
2024/02/24 07:37:17;;;;;;;18.02;16.83;;;4.60;99.90;;;;;;4951066;28;20927;-73
2024/02/24 07:39:44;;;;;;;17.33;15.82;;;4.70;99.90;;;;;;4962981;28;20062;-73
2024/02/24 07:42:11;;;;;;;17.20;16.08;;;4.70;99.90;;;;;;4966770;28;20055;-72
2024/02/24 07:44:38;;;;;;;18.77;17.58;;;4.70;99.90;;;;;;4961312;28;20097;-72
2024/02/24 07:47:07;;;;;;;35.58;21.17;;;4.70;99.90;;;;;;4975618;28;20062;-73
2024/02/24 07:49:35;;;;;;;20.15;18.48;;;4.70;99.90;;;;;;4960909;28;20042;-73
2024/02/24 07:52:04;;;;;;;18.60;17.20;;;4.70;99.90;;;;;;4946630;28;20153;-73
2024/02/24 07:54:30;;;;;;;19.83;18.02;;;4.80;99.90;;;;;;4946994;28;20039;-73
2024/02/24 07:56:57;;;;;;;16.92;15.82;;;4.90;99.90;;;;;;4946377;28;20065;-72
2024/02/24 07:59:24;;;;;;;17.48;16.10;;;5.00;99.90;;;;;;4943570;28;20082;-73
2024/02/24 08:01:51;;;;;;;15.68;14.70;;;5.00;99.90;;;;;;4949203;28;20489;-72
2024/02/24 08:04:18;;;;;;;17.00;15.95;;;5.00;99.90;;;;;;4964664;28;20129;-72
2024/02/24 08:06:45;;;;;;;18.23;16.73;;;5.00;99.90;;;;;;4970334;28;20047;-73
2024/02/24 08:09:12;;;;;;;18.35;16.95;;;5.00;99.90;;;;;;4963297;28;20050;-72
2024/02/24 08:11:42;;;;;;;16.05;15.05;;;4.90;99.90;;;;;;4948698;28;20382;-72
2024/02/24 08:14:09;;;;;;;17.13;15.95;;;4.90;99.90;;;;;;4948204;28;20054;-72
2024/02/24 08:16:36;;;;;;;17.15;15.95;;;4.90;99.90;;;;;;4957281;28;20046;-72
2024/02/24 08:19:05;;;;;;;16.75;15.65;;;4.80;99.90;;;;;;4961494;28;20046;-72
2024/02/24 08:21:36;;;;;;;16.00;14.88;;;4.80;99.90;;;;;;4963492;28;20562;-72
2024/02/24 08:24:09;;;;;;;16.13;14.93;;;4.80;99.90;;;;;;4968891;28;20054;-73
2024/02/24 08:26:39;;;;;;;128.65;31.17;;;4.80;99.90;;;;;;4965319;28;20058;-72
2024/02/24 08:29:09;;;;;;;16.85;15.50;;;4.80;99.90;;;;;;4964004;28;20146;-72
2024/02/24 08:31:38;;;;;;;21.40;17.00;;;4.90;99.90;;;;;;4965357;28;20047;-72
2024/02/24 08:34:05;;;;;;;16.88;15.50;;;4.90;99.90;;;;;;4963238;28;20043;-72
2024/02/24 08:36:32;;;;;;;17.80;16.42;;;5.00;99.90;;;;;;4962844;28;20058;-72
2024/02/24 08:38:59;;;;;;;79.93;25.50;;;5.10;99.90;;;;;;4964915;28;20042;-72
2024/02/24 08:41:31;;;;;;;21.83;20.13;;;5.30;99.90;;;;;;4966259;28;20046;-73
2024/02/24 08:44:01;;;;;;;20.67;19.25;;;5.50;99.90;;;;;;4971692;28;20057;-72
2024/02/24 08:46:29;;;;;;;21.27;19.60;;;5.70;99.90;;;;;;4958695;28;20053;-72
2024/02/24 08:48:56;;;;;;;20.80;19.10;;;5.80;99.90;;;;;;4945024;28;20054;-72
2024/02/24 08:51:25;;;;;;;21.23;19.90;;;5.80;99.90;;;;;;4977335;28;20042;-72
2024/02/24 08:53:52;;;;;;;24.02;22.20;;;5.80;99.90;;;;;;4962547;28;20046;-72
2024/02/24 08:56:20;;;;;;;25.23;23.52;;;5.90;99.90;;;;;;4964142;28;20538;-72
2024/02/24 08:58:48;;;;;;;26.10;24.50;;;6.00;99.90;;;;;;4964328;28;20056;-72
2024/02/24 09:01:15;;;;;;;24.73;23.25;;;6.00;99.90;;;;;;4981643;28;20672;-71
2024/02/24 09:03:42;;;;;;;23.88;22.17;;;5.90;99.90;;;;;;4963763;28;20061;-71
2024/02/24 09:06:10;;;;;;;23.20;21.70;;;5.80;99.90;;;;;;4977443;28;20050;-72
2024/02/24 09:08:37;;;;;;;24.55;22.70;;;5.90;99.90;;;;;;4967918;28;20050;-71
2024/02/24 09:11:04;;;;;;;25.77;24.17;;;5.90;99.90;;;;;;4962670;28;20056;-71
2024/02/24 09:13:31;;;;;;;26.52;24.27;;;5.90;99.90;;;;;;4964879;28;20620;-72
2024/02/24 09:15:58;;;;;;;26.80;24.73;;;6.00;99.90;;;;;;4963675;28;20066;-73
2024/02/24 09:18:27;;;;;;;25.95;24.40;;;6.00;99.90;;;;;;4964027;28;20038;-72
2024/02/24 09:20:54;;;;;;;21.33;19.42;;;6.10;99.90;;;;;;4966908;28;20629;-72
2024/02/24 09:23:21;;;;;;;20.48;19.05;;;6.10;99.90;;;;;;4963818;28;20137;-72
2024/02/24 09:25:48;;;;;;;21.60;20.20;;;6.20;99.90;;;;;;4952720;28;20494;-72
2024/02/24 09:28:15;;;;;;;27.25;21.58;;;6.10;99.90;;;;;;4943749;28;20534;-72
2024/02/24 09:30:42;;;;;;;21.80;20.40;;;6.20;99.90;;;;;;4949505;28;20058;-72
2024/02/24 09:33:09;;;;;;;22.55;20.67;;;6.20;99.90;;;;;;4959789;28;20419;-72
2024/02/24 09:35:36;;;;;;;23.08;21.48;;;6.30;99.90;;;;;;4958658;28;20471;-72
2024/02/24 09:38:03;;;;;;;22.83;21.10;;;6.30;99.90;;;;;;4944690;28;20050;-73
2024/02/24 09:40:29;;;;;;;23.38;21.52;;;6.40;99.90;;;;;;4945921;28;20058;-72
2024/02/24 09:43:08;;;;;;;23.08;21.52;;;6.30;99.90;;;;;;4961894;28;20049;-73
2024/02/24 09:45:41;;;;;;;22.52;21.20;;;6.30;99.90;;;;;;4961553;28;20050;-72
2024/02/24 09:48:09;;;;;;;22.75;21.02;;;6.20;99.90;;;;;;4954814;28;20146;-72
2024/02/24 09:50:36;;;;;;;22.63;21.00;;;6.10;99.90;;;;;;4964161;28;20509;-72
2024/02/24 09:53:03;;;;;;;23.27;21.55;;;6.10;99.90;;;;;;4958867;28;20077;-72
2024/02/24 09:55:30;;;;;;;23.42;21.55;;;6.20;99.90;;;;;;4969270;28;20769;-71
2024/02/24 09:57:57;;;;;;;22.35;20.90;;;6.30;99.90;;;;;;4959002;28;21716;-71
2024/02/24 10:00:24;;;;;;;22.27;20.65;;;6.30;99.90;;;;;;4964198;28;20749;-74
2024/02/24 10:02:52;;;;;;;22.83;20.60;;;6.30;99.90;;;;;;4957654;28;20697;-73
2024/02/24 10:05:19;;;;;;;23.13;21.55;;;6.30;99.90;;;;;;4963489;28;20050;-74
2024/02/24 10:07:46;;;;;;;23.95;22.27;;;6.40;99.90;;;;;;4953237;28;20043;-74
2024/02/24 10:10:16;;;;;;;28.25;25.55;;;6.40;99.90;;;;;;4971424;28;20056;-74
2024/02/24 10:12:59;;;;;;;30.02;27.42;;;6.50;99.90;;;;;;4961301;28;20042;-71
2024/02/24 10:15:26;;;;;;;24.92;23.33;;;6.50;99.90;;;;;;4966194;28;20049;-74
2024/02/24 10:17:55;;;;;;;29.52;27.15;;;6.50;99.90;;;;;;4966481;28;20058;-73
2024/02/24 10:20:22;;;;;;;23.75;22.35;;;6.60;99.90;;;;;;4966809;28;20189;-72
2024/02/24 10:22:49;;;;;;;25.77;23.95;;;6.70;99.90;;;;;;4966540;28;20156;-74
2024/02/24 10:25:16;;;;;;;23.67;22.20;;;6.80;99.90;;;;;;4966991;28;20078;-74
2024/02/24 10:27:43;;;;;;;22.67;21.20;;;6.80;99.90;;;;;;4964060;28;20149;-74
2024/02/24 10:30:11;;;;;;;23.67;22.20;;;6.80;99.90;;;;;;4981108;28;20128;-74
2024/02/24 10:32:39;;;;;;;23.23;21.45;;;6.90;99.90;;;;;;4962685;28;20054;-73
2024/02/24 10:35:08;;;;;;;23.73;22.52;;;7.00;99.90;;;;;;4966539;28;20148;-74
2024/02/24 10:37:35;;;;;;;21.50;20.20;;;6.80;99.90;;;;;;4972226;28;20927;-74
2024/02/24 10:40:22;;;;;;;22.08;20.88;;;6.80;99.90;;;;;;4970828;28;20133;-74
2024/02/24 10:42:50;;;;;;;21.55;20.35;;;6.90;99.90;;;;;;4958985;28;20050;-74
2024/02/24 10:45:17;;;;;;;23.58;22.27;;;7.10;99.90;;;;;;4967744;28;20967;-74
2024/02/24 10:47:44;;;;;;;25.73;24.23;;;7.20;99.90;;;;;;4962314;28;20636;-74
2024/02/24 10:50:13;;;;;;;21.20;20.10;;;7.10;99.90;;;;;;4975662;28;20550;-74
2024/02/24 10:52:40;;;;;;;23.20;21.80;;;7.10;99.90;;;;;;4975379;28;20582;-73
2024/02/24 10:55:08;;;;;;;23.50;22.23;;;7.20;99.90;;;;;;4967404;28;20113;-73
2024/02/24 10:57:37;;;;;;;24.73;23.48;;;7.20;99.90;;;;;;4972006;28;20065;-73
2024/02/24 11:00:28;;;;;;;26.10;23.63;;;7.30;99.90;;;;;;4965106;28;20050;-73
2024/02/24 11:03:00;;;;;;;21.25;19.70;;;7.20;99.90;;;;;;4973962;28;20050;-73
2024/02/24 11:05:28;;;;;;;22.90;21.83;;;7.10;99.90;;;;;;4973299;28;20062;-74
2024/02/24 11:07:55;;;;;;;24.77;23.58;;;7.00;99.90;;;;;;4964339;28;20202;-72
2024/02/24 11:10:32;;;;;;;23.63;22.42;;;6.70;99.90;;;;;;4965075;28;20046;-74
2024/02/24 11:13:01;;;;;;;23.88;22.63;;;6.70;99.90;;;;;;4949694;28;21566;-73
2024/02/24 11:15:28;;;;;;;23.38;22.27;;;6.60;99.90;;;;;;4978289;28;20046;-73
2024/02/24 11:17:58;;;;;;;24.88;22.15;;;6.50;99.90;;;;;;4965870;28;20630;-73
2024/02/24 11:20:38;;;;;;;21.92;20.77;;;6.50;99.90;;;;;;4961537;28;20047;-74
2024/02/24 11:23:26;;;;;;;21.55;20.45;;;6.60;99.90;;;;;;4966226;28;20061;-72
2024/02/24 11:26:20;;;;;;;23.38;22.17;;;6.60;99.90;;;;;;4946035;28;20549;-73
2024/02/24 11:28:59;;;;;;;23.00;21.90;;;6.70;99.90;;;;;;4962730;28;20053;-74
2024/02/24 11:31:35;;;;;;;25.27;23.88;;;6.80;99.90;;;;;;4968182;28;20122;-74
2024/02/24 11:34:07;;;;;;;22.38;21.30;;;6.90;99.90;;;;;;4962897;28;20043;-73
2024/02/24 11:36:38;;;;;;;24.50;23.13;;;7.00;99.90;;;;;;4963904;28;20050;-72
2024/02/24 11:39:11;;;;;;;23.83;22.48;;;7.10;99.90;;;;;;4965452;28;20136;-73
2024/02/24 11:41:40;;;;;;;23.20;22.00;;;7.30;99.90;;;;;;4954580;28;20175;-73
2024/02/24 11:44:08;;;;;;;21.77;20.50;;;7.60;99.90;;;;;;4963227;28;20050;-74
2024/02/24 11:46:35;;;;;;;21.48;20.17;;;7.50;99.90;;;;;;4971147;28;20149;-73
2024/02/24 11:49:03;;;;;;;25.40;23.90;;;7.50;99.90;;;;;;4963488;28;20047;-74
2024/02/24 11:51:30;;;;;;;22.52;21.17;;;7.70;99.90;;;;;;4966895;28;20050;-72
2024/02/24 11:53:57;;;;;;;20.67;19.58;;;7.90;99.90;;;;;;4971888;28;20058;-72
2024/02/24 11:56:25;;;;;;;22.00;20.80;;;8.00;99.90;;;;;;4968064;28;20130;-72
2024/02/24 11:58:55;;;;;;;21.90;20.70;;;8.30;99.90;;;;;;4961790;28;20081;-72
2024/02/24 12:01:22;;;;;;;31.75;23.98;;;8.30;99.90;;;;;;4968689;28;20399;-72
2024/02/24 12:03:53;;;;;;;22.33;20.92;;;8.60;99.90;;;;;;4967789;28;20054;-71
2024/02/24 12:06:21;;;;;;;23.30;22.00;;;8.30;99.90;;;;;;4963189;28;20956;-72
2024/02/24 12:08:48;;;;;;;26.45;24.85;;;8.20;99.90;;;;;;4969259;28;20052;-72
2024/02/24 12:11:15;;;;;;;22.90;21.88;;;8.10;99.90;;;;;;4964433;28;20129;-71
2024/02/24 12:13:43;;;;;;;22.45;21.35;;;8.00;99.90;;;;;;4955834;28;20069;-74
2024/02/24 12:16:10;;;;;;;22.40;21.35;;;8.00;99.90;;;;;;4964012;28;20035;-71
2024/02/24 12:18:41;;;;;;;22.27;21.17;;;7.80;99.90;;;;;;4969270;28;20056;-71
2024/02/24 12:21:10;;;;;;;21.40;20.30;;;7.70;99.90;;;;;;4968487;28;20058;-72
2024/02/24 12:23:39;;;;;;;21.23;20.02;;;7.70;99.90;;;;;;4967519;28;20062;-71
2024/02/24 12:26:13;;;;;;;23.52;22.30;;;7.80;99.90;;;;;;4956560;28;20057;-72
2024/02/24 12:28:41;;;;;;;20.63;19.40;;;8.00;99.90;;;;;;4965088;28;20046;-72
2024/02/24 12:31:10;;;;;;;24.17;22.98;;;8.20;99.90;;;;;;4948196;28;20046;-72
2024/02/24 12:33:38;;;;;;;25.38;24.05;;;8.30;99.90;;;;;;4962691;28;20584;-71
2024/02/24 12:36:07;;;;;;;26.60;25.00;;;8.30;99.90;;;;;;4948333;28;20559;-71
2024/02/24 12:38:34;;;;;;;24.42;23.25;;;8.30;99.90;;;;;;4953895;28;20057;-72